createdAt,value
2022-09-24T00:02:20.655Z,2.23
2022-09-24T00:04:48.880Z,2.30
2022-09-24T00:07:18.546Z,2.17
2022-09-24T00:09:46.810Z,2.07
2022-09-24T00:12:15.030Z,2.13
2022-09-24T00:14:43.323Z,2.13
2022-09-24T00:17:11.830Z,1.80
2022-09-24T00:19:40.277Z,2.00
2022-09-24T00:22:08.502Z,1.50
2022-09-24T00:24:55.425Z,2.00
2022-09-24T00:27:23.643Z,1.73
2022-09-24T00:29:51.915Z,1.73
2022-09-24T00:32:20.133Z,1.90
2022-09-24T00:34:48.351Z,1.90
2022-09-24T00:37:16.631Z,1.97
2022-09-24T00:39:46.742Z,1.93
2022-09-24T00:42:15.673Z,2.00
2022-09-24T00:44:54.700Z,2.23
2022-09-24T00:47:41.620Z,1.70
2022-09-24T00:50:17.521Z,1.70
2022-09-24T00:52:51.192Z,2.47
2022-09-24T00:55:23.733Z,1.63
2022-09-24T00:57:56.281Z,1.90
2022-09-24T01:00:24.964Z,1.93
2022-09-24T01:02:57.799Z,2.10
2022-09-24T01:05:26.056Z,2.27
2022-09-24T01:07:54.576Z,2.50
2022-09-24T01:10:51.247Z,2.40
2022-09-24T01:13:43.387Z,2.40
2022-09-24T01:16:34.851Z,2.33
2022-09-24T01:19:14.571Z,2.80
2022-09-24T01:21:47.974Z,2.80
2022-09-24T01:24:28.287Z,2.63
2022-09-24T01:27:03.819Z,2.60
2022-09-24T01:29:45.641Z,3.17
2022-09-24T01:32:20.322Z,2.93
2022-09-24T01:34:53.238Z,3.33
2022-09-24T01:37:25.203Z,2.33
2022-09-24T01:39:55.978Z,2.77
2022-09-24T01:42:25.069Z,2.53
2022-09-24T01:44:56.068Z,2.73
2022-09-24T01:47:34.875Z,2.73
2022-09-24T01:50:04.176Z,2.33
2022-09-24T01:52:38.258Z,2.67
2022-09-24T01:55:09.379Z,2.77
2022-09-24T01:57:42.530Z,2.60
2022-09-24T02:00:14.494Z,2.97
2022-09-24T02:02:47.721Z,3.20
2022-09-24T02:05:21.230Z,3.50
2022-09-24T02:07:57.495Z,3.00
2022-09-24T02:10:46.431Z,3.40
2022-09-24T02:13:19.206Z,2.90
2022-09-24T02:15:53.578Z,2.83
2022-09-24T02:18:26.972Z,3.40
2022-09-24T02:20:55.766Z,3.03
2022-09-24T02:23:27.540Z,3.80
2022-09-24T02:25:58.919Z,3.43
2022-09-24T02:28:28.017Z,2.90
2022-09-24T02:31:03.755Z,2.87
2022-09-24T02:33:51.540Z,2.80
2022-09-24T02:36:20.094Z,2.63
2022-09-24T02:38:48.348Z,3.30
2022-09-24T02:41:16.710Z,2.80
2022-09-24T02:43:45.134Z,2.70
2022-09-24T02:46:14.829Z,3.23
2022-09-24T02:48:43.186Z,3.00
2022-09-24T02:51:11.417Z,2.80
2022-09-24T02:53:39.691Z,3.23
2022-09-24T02:56:08.336Z,2.90
2022-09-24T02:58:37.686Z,2.40
2022-09-24T03:01:06.311Z,2.70
2022-09-24T03:03:35.958Z,2.70
2022-09-24T03:06:04.818Z,2.80
2022-09-24T03:08:33.179Z,2.57
2022-09-24T03:11:01.530Z,2.77
2022-09-24T03:13:29.771Z,2.43
2022-09-24T03:15:58.094Z,2.50
2022-09-24T03:18:26.552Z,2.57
2022-09-24T03:21:00.138Z,2.60
2022-09-24T03:23:29.080Z,2.90
2022-09-24T03:25:59.010Z,2.60
2022-09-24T03:28:27.867Z,3.07
2022-09-24T03:31:01.216Z,3.07
2022-09-24T03:33:31.371Z,3.10
2022-09-24T03:36:02.823Z,3.03
2022-09-24T03:38:31.899Z,3.07
2022-09-24T03:41:00.698Z,2.97
2022-09-24T03:43:29.307Z,2.80
2022-09-24T03:45:57.555Z,2.90
2022-09-24T03:48:27.324Z,3.00
2022-09-24T03:50:55.970Z,2.57
2022-09-24T03:53:25.661Z,2.90
2022-09-24T03:55:57.005Z,2.67
2022-09-24T03:58:25.852Z,2.70
2022-09-24T04:00:54.745Z,2.63
2022-09-24T04:03:23.588Z,2.93
2022-09-24T04:05:52.427Z,2.60
2022-09-24T04:08:22.259Z,2.23
2022-09-24T04:10:52.347Z,2.60
2022-09-24T04:13:21.281Z,2.67
2022-09-24T04:15:50.327Z,2.57
2022-09-24T04:18:19.284Z,3.17
2022-09-24T04:20:48.098Z,3.33
2022-09-24T04:23:16.690Z,2.73
2022-09-24T04:25:45.442Z,2.60
2022-09-24T04:28:15.057Z,2.67
2022-09-24T04:30:43.316Z,2.40
2022-09-24T04:33:12.116Z,2.30
2022-09-24T04:35:40.393Z,2.40
2022-09-24T04:38:08.599Z,2.80
2022-09-24T04:40:36.937Z,2.83
2022-09-24T04:43:06.138Z,2.70
2022-09-24T04:45:36.006Z,2.83
2022-09-24T04:48:04.301Z,2.73
2022-09-24T04:50:34.523Z,2.60
2022-09-24T04:53:03.428Z,2.87
2022-09-24T04:55:32.417Z,2.93
2022-09-24T04:58:00.963Z,2.43
2022-09-24T05:00:33.553Z,3.40
2022-09-24T05:03:04.790Z,2.83
2022-09-24T05:05:33.328Z,2.80
2022-09-24T05:08:01.993Z,3.13
2022-09-24T05:10:31.419Z,3.10
2022-09-24T05:12:59.768Z,3.07
2022-09-24T05:15:28.092Z,2.70
2022-09-24T05:17:56.315Z,2.90
2022-09-24T05:20:26.561Z,3.10
2022-09-24T05:22:55.460Z,3.00
2022-09-24T05:25:23.848Z,3.30
2022-09-24T05:27:53.522Z,2.87
2022-09-24T05:30:23.358Z,2.97
2022-09-24T05:32:53.103Z,2.60
2022-09-24T05:35:22.887Z,2.77
2022-09-24T05:37:53.817Z,3.00
2022-09-24T05:40:39.822Z,2.83
2022-09-24T05:43:08.204Z,3.30
2022-09-24T05:45:36.490Z,2.50
2022-09-24T05:48:05.524Z,3.40
2022-09-24T05:50:35.114Z,3.50
2022-09-24T05:53:06.486Z,3.77
2022-09-24T05:55:35.155Z,3.43
2022-09-24T05:58:07.351Z,3.95
2022-09-24T06:00:36.540Z,3.33
2022-09-24T06:03:07.876Z,3.53
2022-09-24T06:05:36.569Z,3.73
2022-09-24T06:08:08.149Z,3.03
2022-09-24T06:10:37.623Z,3.33
2022-09-24T06:13:06.051Z,3.60
2022-09-24T06:15:35.068Z,3.60
2022-09-24T06:18:03.321Z,3.80
2022-09-24T06:20:31.641Z,3.03
2022-09-24T06:23:00.427Z,3.57
2022-09-24T06:25:31.126Z,3.80
2022-09-24T06:28:01.429Z,3.87
2022-09-24T06:30:30.753Z,3.40
2022-09-24T06:33:05.401Z,3.30
2022-09-24T06:35:35.352Z,3.40
2022-09-24T06:38:03.695Z,3.30
2022-09-24T06:40:36.939Z,3.47
2022-09-24T06:43:06.390Z,3.10
2022-09-24T06:45:35.010Z,3.10
2022-09-24T06:48:05.413Z,3.20
2022-09-24T06:50:35.145Z,3.23
2022-09-24T06:53:08.871Z,2.40
2022-09-24T06:55:39.562Z,3.27
2022-09-24T06:58:09.954Z,2.70
2022-09-24T07:00:39.963Z,2.50
2022-09-24T07:03:08.807Z,2.20
2022-09-24T07:05:41.085Z,3.10
2022-09-24T07:08:11.679Z,2.63
2022-09-24T07:10:43.820Z,2.80
2022-09-24T07:13:13.345Z,3.23
2022-09-24T07:15:41.724Z,2.33
2022-09-24T07:18:10.345Z,2.27
2022-09-24T07:20:38.751Z,3.00
2022-09-24T07:23:08.398Z,3.33
2022-09-24T07:25:37.539Z,3.30
2022-09-24T07:28:09.519Z,3.37
2022-09-24T07:30:38.304Z,2.60
2022-09-24T07:33:07.489Z,2.20
2022-09-24T07:35:38.337Z,2.27
2022-09-24T07:38:08.376Z,1.90
2022-09-24T07:40:36.700Z,2.17
2022-09-24T07:43:13.936Z,2.47
2022-09-24T07:45:43.439Z,2.10
2022-09-24T07:48:12.936Z,2.50
2022-09-24T07:50:42.700Z,2.10
2022-09-24T07:53:12.424Z,2.33
2022-09-24T07:55:41.363Z,2.83
2022-09-24T07:58:14.116Z,2.20
2022-09-24T08:00:42.754Z,3.20
2022-09-24T08:03:11.123Z,2.90
2022-09-24T08:05:45.494Z,3.63
2022-09-24T08:08:14.278Z,2.80
2022-09-24T08:10:43.105Z,2.67
2022-09-24T08:13:12.762Z,2.30
2022-09-24T08:15:57.708Z,2.57
2022-09-24T08:18:26.191Z,2.23
2022-09-24T08:20:54.497Z,1.83
2022-09-24T08:23:22.886Z,2.00
2022-09-24T08:25:51.288Z,1.90
2022-09-24T08:28:20.945Z,2.00
2022-09-24T08:30:49.251Z,1.60
2022-09-24T08:33:17.538Z,1.50
2022-09-24T08:35:45.791Z,1.40
2022-09-24T08:38:14.051Z,1.10
2022-09-24T08:40:47.525Z,1.30
2022-09-24T08:43:27.139Z,1.50
2022-09-24T08:46:16.587Z,1.40
2022-09-24T08:48:51.537Z,1.50
2022-09-24T08:51:22.422Z,1.43
2022-09-24T08:53:54.545Z,1.50
2022-09-24T08:56:27.094Z,1.40
2022-09-24T08:59:00.442Z,1.53
2022-09-24T09:01:37.299Z,1.40
2022-09-24T09:04:18.950Z,1.73
2022-09-24T09:07:07.822Z,1.27
2022-09-24T09:09:45.991Z,1.50
2022-09-24T09:12:18.997Z,1.10
2022-09-24T09:14:54.272Z,0.97
2022-09-24T09:17:32.341Z,1.00
2022-09-24T09:20:04.693Z,1.20
2022-09-24T09:22:37.091Z,1.03
2022-09-24T09:25:16.434Z,1.10
2022-09-24T09:27:44.694Z,1.20
2022-09-24T09:30:22.325Z,1.20
2022-09-24T09:33:10.216Z,1.20
2022-09-24T09:35:49.288Z,1.17
2022-09-24T09:38:25.464Z,1.33
2022-09-24T09:41:04.506Z,1.10
2022-09-24T09:43:34.035Z,1.30
2022-09-24T09:46:14.193Z,1.10
2022-09-24T09:48:48.031Z,1.20
2022-09-24T09:51:22.686Z,1.20
2022-09-24T09:53:56.774Z,1.65
2022-09-24T09:56:26.878Z,1.00
2022-09-24T09:59:04.328Z,1.00
2022-09-24T10:01:36.110Z,1.00
2022-09-24T10:04:05.888Z,1.27
2022-09-24T10:06:36.332Z,1.07
2022-09-24T10:09:13.316Z,1.65
2022-09-24T10:11:42.242Z,2.42
2022-09-24T10:14:13.288Z,1.20
2022-09-24T10:16:45.506Z,1.17
2022-09-24T10:19:20.487Z,1.33
2022-09-24T10:21:49.167Z,1.20
2022-09-24T10:24:20.374Z,1.40
2022-09-24T10:26:49.863Z,0.95
2022-09-24T10:29:38.488Z,1.27
2022-09-24T10:32:17.495Z,1.07
2022-09-24T10:34:57.360Z,0.80
2022-09-24T10:37:28.638Z,1.08
2022-09-24T10:40:00.997Z,1.00
2022-09-24T10:42:31.120Z,1.00
2022-09-24T10:45:02.308Z,1.08
2022-09-24T10:47:39.587Z,0.75
2022-09-24T10:50:26.683Z,1.05
2022-09-24T10:52:58.799Z,1.10
2022-09-24T10:55:57.240Z,0.90
2022-09-24T10:58:48.118Z,0.82
2022-09-24T11:01:20.377Z,1.48
2022-09-24T11:04:10.896Z,0.70
2022-09-24T11:06:47.544Z,1.65
2022-09-24T11:09:29.229Z,2.50
2022-09-24T11:12:06.206Z,1.85
2022-09-24T11:14:53.466Z,0.90
2022-09-24T11:17:34.652Z,0.90
2022-09-24T11:20:24.343Z,0.80
2022-09-24T11:23:29.416Z,1.10
2022-09-24T11:26:04.139Z,0.90
2022-09-24T11:28:52.671Z,1.23
2022-09-24T11:31:29.049Z,1.95
2022-09-24T11:34:17.033Z,1.00
2022-09-24T11:36:59.119Z,1.00
2022-09-24T11:39:43.759Z,1.15
2022-09-24T11:42:23.380Z,0.90
2022-09-24T11:45:14.307Z,0.80
2022-09-24T11:47:56.652Z,0.90
2022-09-24T11:50:38.168Z,0.80
2022-09-24T11:53:14.897Z,0.90
2022-09-24T11:55:49.500Z,1.10
2022-09-24T11:58:21.698Z,1.20
2022-09-24T12:00:54.330Z,1.58
2022-09-24T12:03:26.662Z,1.35
2022-09-24T12:06:01.093Z,0.98
2022-09-24T12:08:38.384Z,1.15
2022-09-24T12:11:15.194Z,1.25
2022-09-24T12:13:48.131Z,1.20
2022-09-24T12:16:19.870Z,1.20
2022-09-24T12:18:55.494Z,1.95
2022-09-24T12:21:28.185Z,1.40
2022-09-24T12:24:03.502Z,1.80
2022-09-24T12:26:32.424Z,1.38
2022-09-24T12:29:21.948Z,1.70
2022-09-24T12:32:13.711Z,1.40
2022-09-24T12:34:50.929Z,1.20
2022-09-24T12:37:24.306Z,1.15
2022-09-24T12:40:01.872Z,1.00
2022-09-24T12:42:36.027Z,1.08
2022-09-24T12:45:06.336Z,1.15
2022-09-24T12:47:46.655Z,1.55
2022-09-24T12:50:22.752Z,1.30
2022-09-24T12:52:51.014Z,1.35
2022-09-24T12:55:23.671Z,1.38
2022-09-24T12:57:54.870Z,1.42
2022-09-24T13:00:41.430Z,1.10
2022-09-24T13:03:34.369Z,1.15
2022-09-24T13:06:03.253Z,1.40
2022-09-24T13:08:38.430Z,1.08
2022-09-24T13:11:30.820Z,1.35
2022-09-24T13:14:02.675Z,1.67
2022-09-24T13:16:33.050Z,2.03
2022-09-24T13:19:02.857Z,1.55
2022-09-24T13:21:32.602Z,1.70
2022-09-24T13:24:11.547Z,1.60
2022-09-24T13:26:41.320Z,1.63
2022-09-24T13:29:25.526Z,1.30
2022-09-24T13:32:00.941Z,1.30
2022-09-24T13:34:32.028Z,1.40
2022-09-24T13:37:03.836Z,1.30
2022-09-24T13:39:41.888Z,1.75
2022-09-24T13:42:19.242Z,1.67
2022-09-24T13:44:50.312Z,1.65
2022-09-24T13:47:27.819Z,1.88
2022-09-24T13:50:04.680Z,1.98
2022-09-24T13:52:37.088Z,1.60
2022-09-24T13:55:13.127Z,1.52
2022-09-24T13:57:46.752Z,1.40
2022-09-24T14:00:20.090Z,1.50
2022-09-24T14:02:57.137Z,1.10
2022-09-24T14:05:27.615Z,1.48
2022-09-24T14:07:59.062Z,2.35
2022-09-24T14:10:27.292Z,1.70
2022-09-24T14:13:11.362Z,1.85
2022-09-24T14:15:40.003Z,1.10
2022-09-24T14:18:16.222Z,1.33
2022-09-24T14:20:45.856Z,1.90
2022-09-24T14:23:20.041Z,5.95
2022-09-24T14:25:50.361Z,2.20
2022-09-24T14:28:21.424Z,2.72
2022-09-24T14:30:52.719Z,1.83
2022-09-24T14:33:25.829Z,1.38
2022-09-24T14:35:56.011Z,1.63
2022-09-24T14:38:29.375Z,1.73
2022-09-24T14:41:01.214Z,1.10
2022-09-24T14:43:38.379Z,2.03
2022-09-24T14:46:10.010Z,2.30
2022-09-24T14:48:38.343Z,1.30
2022-09-24T14:51:06.753Z,1.40
2022-09-24T14:53:36.991Z,1.00
2022-09-24T14:56:20.826Z,1.40
2022-09-24T14:58:50.452Z,1.00
2022-09-24T15:01:21.100Z,1.25
2022-09-24T15:03:51.134Z,1.30
2022-09-24T15:06:22.347Z,1.50
2022-09-24T15:08:57.465Z,1.52
2022-09-24T15:11:28.724Z,1.58
2022-09-24T15:14:03.867Z,1.52
2022-09-24T15:16:34.866Z,1.83
2022-09-24T15:19:19.674Z,1.98
2022-09-24T15:21:49.548Z,1.13
2022-09-24T15:24:19.485Z,1.33
2022-09-24T15:26:49.506Z,1.08
2022-09-24T15:29:24.439Z,1.00
2022-09-24T15:31:52.889Z,1.10
2022-09-24T15:34:21.584Z,1.20
2022-09-24T15:36:50.527Z,1.33
2022-09-24T15:39:20.768Z,1.20
2022-09-24T15:41:49.022Z,1.60
2022-09-24T15:44:23.139Z,1.05
2022-09-24T15:46:52.230Z,1.52
2022-09-24T15:49:22.218Z,1.77
2022-09-24T15:51:52.241Z,1.90
2022-09-24T15:54:21.723Z,1.10
2022-09-24T15:56:52.574Z,1.60
2022-09-24T15:59:23.418Z,1.52
2022-09-24T16:01:54.518Z,1.70
2022-09-24T16:04:22.897Z,1.53
2022-09-24T16:06:51.155Z,2.27
2022-09-24T16:09:19.690Z,3.07
2022-09-24T16:11:48.018Z,2.60
2022-09-24T16:14:16.257Z,2.90
2022-09-24T16:16:45.874Z,2.85
2022-09-24T16:19:14.426Z,3.50
2022-09-24T16:21:42.727Z,3.40
2022-09-24T16:24:11.110Z,4.50
2022-09-24T16:26:39.743Z,4.40
2022-09-24T16:29:10.451Z,10.20
2022-09-24T16:31:38.974Z,12.57
2022-09-24T16:34:08.713Z,22.50
2022-09-24T16:36:36.934Z,29.83
2022-09-24T16:39:05.537Z,27.23
2022-09-24T16:41:34.630Z,24.47
2022-09-24T16:44:03.185Z,22.20
2022-09-24T16:46:31.985Z,20.53
2022-09-24T16:49:00.214Z,18.60
2022-09-24T16:51:29.802Z,17.47
2022-09-24T16:53:58.583Z,19.63
2022-09-24T16:56:26.984Z,18.90
2022-09-24T16:58:55.223Z,16.57
2022-09-24T17:01:24.005Z,18.43
2022-09-24T17:03:53.513Z,15.97
2022-09-24T17:06:23.234Z,15.37
2022-09-24T17:09:10.748Z,14.17
2022-09-24T17:11:40.590Z,11.80
2022-09-24T17:14:10.523Z,11.70
2022-09-24T17:16:39.203Z,10.47
2022-09-24T17:19:08.450Z,9.70
2022-09-24T17:21:37.745Z,10.20
2022-09-24T17:24:07.673Z,11.00
2022-09-24T17:26:36.711Z,9.07
2022-09-24T17:29:05.626Z,10.50
2022-09-24T17:31:34.095Z,11.07
2022-09-24T17:34:04.804Z,10.37
2022-09-24T17:36:34.884Z,11.10
2022-09-24T17:39:04.208Z,11.23
2022-09-24T17:41:34.212Z,11.67
2022-09-24T17:44:02.745Z,13.13
2022-09-24T17:46:32.634Z,13.27
2022-09-24T17:49:02.123Z,13.90
2022-09-24T17:51:32.844Z,12.17
2022-09-24T17:54:02.635Z,11.00
2022-09-24T17:56:33.732Z,13.03
2022-09-24T17:59:02.082Z,11.90
2022-09-24T18:01:33.669Z,11.57
2022-09-24T18:04:02.156Z,12.67
2022-09-24T18:06:33.045Z,12.80
2022-09-24T18:09:02.451Z,13.73
2022-09-24T18:11:34.123Z,13.40
2022-09-24T18:14:03.539Z,12.23
2022-09-24T18:16:33.624Z,10.57
2022-09-24T18:19:03.152Z,9.70
2022-09-24T18:21:32.661Z,9.23
2022-09-24T18:24:02.030Z,9.17
2022-09-24T18:26:32.506Z,10.10
2022-09-24T18:29:05.988Z,9.03
2022-09-24T18:31:38.743Z,9.50
2022-09-24T18:34:08.375Z,9.57
2022-09-24T18:36:39.049Z,8.67
2022-09-24T18:39:11.581Z,11.23
2022-09-24T18:41:40.077Z,12.77
2022-09-24T18:44:11.153Z,12.50
2022-09-24T18:46:39.639Z,16.30
2022-09-24T18:49:08.141Z,15.60
2022-09-24T18:51:38.298Z,17.40
2022-09-24T18:54:08.484Z,17.43
2022-09-24T18:56:37.389Z,16.23
2022-09-24T18:59:09.969Z,17.00
2022-09-24T19:01:40.510Z,15.60
2022-09-24T19:04:12.044Z,12.50
2022-09-24T19:06:41.932Z,11.97
2022-09-24T19:09:11.791Z,11.60
2022-09-24T19:11:41.093Z,10.13
2022-09-24T19:14:09.424Z,10.80
2022-09-24T19:16:39.114Z,11.03
2022-09-24T19:19:07.360Z,9.63
2022-09-24T19:21:35.612Z,8.47
2022-09-24T19:24:05.688Z,9.27
2022-09-24T19:26:35.927Z,10.17
2022-09-24T19:29:05.255Z,9.83
2022-09-24T19:31:35.949Z,10.13
2022-09-24T19:34:06.883Z,8.97
2022-09-24T19:36:43.838Z,10.30
2022-09-24T19:39:14.157Z,11.07
2022-09-24T19:41:42.859Z,13.50
2022-09-24T19:44:11.574Z,7.87
2022-09-24T19:46:41.187Z,8.77
2022-09-24T19:49:11.070Z,9.07
2022-09-24T19:51:40.320Z,7.80
2022-09-24T19:54:09.614Z,7.57
2022-09-24T19:56:38.234Z,6.77
2022-09-24T19:59:08.039Z,6.97
2022-09-24T20:01:36.551Z,7.30
2022-09-24T20:04:07.076Z,7.97
2022-09-24T20:06:38.440Z,7.77
2022-09-24T20:09:07.257Z,8.23
2022-09-24T20:11:36.075Z,8.50
2022-09-24T20:14:06.032Z,8.73
2022-09-24T20:16:34.549Z,8.20
2022-09-24T20:19:04.779Z,9.50
2022-09-24T20:21:36.951Z,9.60
2022-09-24T20:24:07.243Z,10.30
2022-09-24T20:26:54.007Z,14.53
2022-09-24T20:29:23.205Z,19.77
2022-09-24T20:31:53.691Z,16.03
2022-09-24T20:34:23.950Z,13.97
2022-09-24T20:36:53.679Z,11.30
2022-09-24T20:39:22.628Z,10.40
2022-09-24T20:41:50.878Z,9.43
2022-09-24T20:44:19.224Z,9.93
2022-09-24T20:46:47.511Z,10.47
2022-09-24T20:49:22.483Z,8.40
2022-09-24T20:51:56.288Z,7.87
2022-09-24T20:54:28.330Z,8.40
2022-09-24T20:56:57.288Z,8.23
2022-09-24T20:59:27.182Z,8.57
2022-09-24T21:01:56.129Z,8.40
2022-09-24T21:04:24.894Z,8.57
2022-09-24T21:06:55.238Z,9.00
2022-09-24T21:09:23.844Z,7.67
2022-09-24T21:11:54.577Z,8.30
2022-09-24T21:14:23.360Z,7.33
2022-09-24T21:16:55.135Z,7.33
2022-09-24T21:19:24.379Z,7.80
2022-09-24T21:21:53.140Z,7.87
2022-09-24T21:24:25.093Z,6.93
2022-09-24T21:26:59.806Z,6.90
2022-09-24T21:29:28.155Z,6.90
2022-09-24T21:31:56.410Z,7.23
2022-09-24T21:34:24.726Z,6.97
2022-09-24T21:36:53.708Z,8.10
2022-09-24T21:39:23.814Z,7.30
2022-09-24T21:41:55.082Z,8.17
2022-09-24T21:44:25.063Z,7.43
2022-09-24T21:46:53.619Z,7.17
2022-09-24T21:49:22.879Z,6.63
2022-09-24T21:51:52.510Z,6.57
2022-09-24T21:54:21.192Z,7.90
2022-09-24T21:56:49.654Z,7.50
2022-09-24T21:59:35.409Z,7.63
2022-09-24T22:02:05.936Z,7.27
2022-09-24T22:04:35.468Z,6.67
2022-09-24T22:07:04.322Z,6.63
2022-09-24T22:09:33.126Z,6.77
2022-09-24T22:12:04.530Z,7.80
2022-09-24T22:14:34.832Z,8.00
2022-09-24T22:17:05.925Z,7.43
2022-09-24T22:19:34.329Z,8.57
2022-09-24T22:22:03.074Z,9.20
2022-09-24T22:24:31.386Z,8.20
2022-09-24T22:26:59.602Z,11.97
2022-09-24T22:29:27.846Z,9.90
2022-09-24T22:31:56.046Z,9.30
2022-09-24T22:34:42.859Z,8.70
2022-09-24T22:37:11.176Z,10.23
2022-09-24T22:39:39.440Z,10.90
2022-09-24T22:42:07.761Z,9.73
2022-09-24T22:44:35.981Z,8.50
2022-09-24T22:47:04.223Z,8.67
2022-09-24T22:49:33.856Z,8.77
2022-09-24T22:52:02.734Z,9.33
2022-09-24T22:54:31.582Z,8.77
2022-09-24T22:56:59.801Z,9.50
2022-09-24T22:59:28.033Z,9.33
2022-09-24T23:01:56.272Z,9.47
2022-09-24T23:04:24.534Z,9.43
2022-09-24T23:06:54.151Z,10.27
2022-09-24T23:09:22.395Z,8.00
2022-09-24T23:11:51.630Z,8.87
2022-09-24T23:14:19.899Z,10.27
2022-09-24T23:16:48.218Z,9.50
2022-09-24T23:19:18.893Z,9.17
2022-09-24T23:21:47.572Z,9.50
2022-09-24T23:24:19.061Z,8.83
2022-09-24T23:26:47.722Z,9.93
2022-09-24T23:29:16.632Z,7.73
2022-09-24T23:31:44.890Z,8.90
2022-09-24T23:34:14.603Z,8.03
2022-09-24T23:36:45.213Z,9.90
2022-09-24T23:39:13.513Z,8.20
2022-09-24T23:41:43.153Z,8.63
2022-09-24T23:44:11.512Z,8.50
2022-09-24T23:46:39.897Z,8.60
2022-09-24T23:49:08.185Z,7.67
2022-09-24T23:51:36.442Z,8.10
2022-09-24T23:54:04.794Z,8.03
2022-09-24T23:56:33.186Z,8.63
2022-09-24T23:59:02.982Z,8.90
